Time;durP1;ratioP1;P1;durP2;ratioP2;P2;SDS_P1;SDS_P2;PMS_P1;PMS_P2;Temp;Humidity;BMP_temperature;BMP_pressure;BME280_temperature;BME280_humidity;BME280_pressure;Samples;Min_cycle;Max_cycle;Signal;HPM_P1;HPM_P2
2021/03/22 00:02:42;;;;;;;10.13;2.83;;;18.60;41.40;;;;;;10409156;28;20217;-21
2021/03/22 00:08:05;;;;;;;11.30;3.57;;;18.60;41.30;;;;;;10377624;28;20215;-21
2021/03/22 00:13:27;;;;;;;11.40;2.70;;;18.60;41.40;;;;;;10376349;28;20195;-21
2021/03/22 00:18:50;;;;;;;11.57;3.10;;;18.60;41.30;;;;;;10377055;28;20249;-21
2021/03/22 00:24:11;;;;;;;10.90;3.33;;;18.60;41.30;;;;;;10376931;28;20226;-22
2021/03/22 00:29:33;;;;;;;9.70;3.33;;;18.60;41.40;;;;;;10376800;28;20264;-21
2021/03/22 00:34:55;;;;;;;10.23;3.30;;;18.60;41.40;;;;;;10376734;28;20201;-21
2021/03/22 00:40:19;;;;;;;9.90;2.97;;;18.60;41.40;;;;;;10390387;28;20688;-22
2021/03/22 00:45:40;;;;;;;7.80;2.73;;;18.60;41.50;;;;;;10413081;28;20248;-21
2021/03/22 00:51:04;;;;;;;8.97;2.93;;;18.60;41.50;;;;;;10416220;28;20209;-21
2021/03/22 00:56:26;;;;;;;11.83;3.20;;;18.60;41.50;;;;;;10416956;28;20252;-22
2021/03/22 01:01:47;;;;;;;10.00;3.00;;;18.60;41.40;;;;;;10415074;28;20561;-21
2021/03/22 01:07:10;;;;;;;9.07;2.63;;;18.60;41.40;;;;;;10414497;28;20209;-21
2021/03/22 01:12:32;;;;;;;10.10;2.93;;;18.60;41.50;;;;;;10413797;28;20658;-21
2021/03/22 01:17:54;;;;;;;10.33;3.23;;;18.60;41.40;;;;;;10415236;28;20701;-21
2021/03/22 01:23:17;;;;;;;8.70;2.70;;;18.60;41.30;;;;;;10411680;28;20228;-23
2021/03/22 01:28:39;;;;;;;7.77;2.40;;;18.60;41.30;;;;;;10414363;28;20221;-21
2021/03/22 01:34:00;;;;;;;8.70;2.97;;;18.60;41.40;;;;;;10413851;28;20665;-21
2021/03/22 01:39:26;;;;;;;12.23;3.33;;;18.60;41.50;;;;;;10413607;28;20217;-21
2021/03/22 01:44:50;;;;;;;10.17;3.20;;;18.50;41.40;;;;;;10415188;28;20226;-21
2021/03/22 01:50:16;;;;;;;8.07;2.57;;;18.60;41.40;;;;;;10414234;28;20233;-21
2021/03/22 01:55:39;;;;;;;7.97;3.17;;;18.60;41.40;;;;;;10404936;28;20202;-21
2021/03/22 02:01:00;;;;;;;9.03;2.47;;;18.50;41.50;;;;;;10411743;28;20229;-22
2021/03/22 02:06:22;;;;;;;8.70;2.60;;;18.50;41.30;;;;;;10414153;28;20221;-22
2021/03/22 02:11:45;;;;;;;9.10;2.90;;;18.50;41.40;;;;;;10413038;28;20192;-22
2021/03/22 02:17:14;;;;;;;7.30;2.50;;;18.50;41.30;;;;;;10411372;28;20763;-21
2021/03/22 02:23:01;;;;;;;6.40;2.50;;;18.50;41.40;;;;;;10412325;28;20213;-21
2021/03/22 02:28:56;;;;;;;9.30;2.67;;;18.50;41.30;;;;;;10412673;28;20217;-22
2021/03/22 02:34:26;;;;;;;8.67;2.60;;;18.50;41.40;;;;;;10409237;28;20198;-21
2021/03/22 02:40:01;;;;;;;9.90;2.80;;;18.50;41.30;;;;;;10411728;28;20218;-23
2021/03/22 02:45:25;;;;;;;7.60;2.93;;;18.50;41.40;;;;;;10411682;28;20693;-21
2021/03/22 02:50:53;;;;;;;11.17;3.10;;;18.50;41.50;;;;;;10410833;28;20305;-21
2021/03/22 02:56:30;;;;;;;13.30;3.37;;;18.50;41.30;;;;;;10410839;28;20201;-22
2021/03/22 03:01:55;;;;;;;9.67;3.10;;;18.50;41.40;;;;;;10409769;28;20621;-21
2021/03/22 03:07:21;;;;;;;11.27;3.17;;;18.50;41.30;;;;;;10411244;28;20210;-21
2021/03/22 03:12:43;;;;;;;9.50;2.93;;;18.50;41.40;;;;;;10410868;28;20566;-21
2021/03/22 03:18:05;;;;;;;11.03;3.10;;;18.50;41.60;;;;;;10409886;28;20226;-23
2021/03/22 03:23:29;;;;;;;9.70;2.80;;;18.50;41.40;;;;;;10405827;28;20267;-21
2021/03/22 03:28:50;;;;;;;10.30;2.70;;;18.50;41.90;;;;;;10410389;28;20640;-21
2021/03/22 03:34:12;;;;;;;9.43;2.67;;;18.50;41.40;;;;;;10410561;28;20236;-21
2021/03/22 03:39:35;;;;;;;8.23;3.03;;;18.50;41.40;;;;;;10409131;28;20213;-21
2021/03/22 03:44:57;;;;;;;8.07;2.33;;;18.50;41.30;;;;;;10409627;28;20209;-21
2021/03/22 03:50:21;;;;;;;9.17;2.60;;;18.50;41.20;;;;;;10408538;28;20221;-23
2021/03/22 03:55:44;;;;;;;8.90;2.53;;;18.50;41.20;;;;;;10409017;28;20202;-21
2021/03/22 04:01:05;;;;;;;9.37;3.03;;;18.40;41.30;;;;;;10391855;28;20252;-22
2021/03/22 04:06:29;;;;;;;8.13;2.60;;;18.40;41.20;;;;;;10388281;28;20221;-21
2021/03/22 04:11:51;;;;;;;8.23;2.70;;;18.50;41.40;;;;;;10408559;28;20205;-21
2021/03/22 04:17:13;;;;;;;7.07;2.40;;;18.50;41.30;;;;;;10409340;28;20213;-21
2021/03/22 04:22:35;;;;;;;7.10;2.20;;;18.40;41.30;;;;;;10409565;28;20225;-21
2021/03/22 04:27:57;;;;;;;11.03;3.20;;;18.40;41.30;;;;;;10408645;28;20275;-21
2021/03/22 04:33:19;;;;;;;7.07;2.70;;;18.40;41.30;;;;;;10408763;28;20244;-21
2021/03/22 04:38:40;;;;;;;8.47;3.20;;;18.40;41.30;;;;;;10409925;28;20642;-21
2021/03/22 04:44:04;;;;;;;8.00;2.80;;;18.50;41.30;;;;;;10415635;28;20225;-22
2021/03/22 04:49:26;;;;;;;8.63;2.63;;;18.60;41.00;;;;;;10447059;22;20233;-20
2021/03/22 04:54:47;;;;;;;7.33;2.60;;;18.70;41.00;;;;;;10439898;28;20243;-21
2021/03/22 05:00:13;;;;;;;6.83;2.80;;;18.70;40.70;;;;;;10423367;28;20217;-20
2021/03/22 05:05:37;;;;;;;9.17;2.70;;;18.80;40.70;;;;;;10451375;28;20221;-20
2021/03/22 05:11:00;;;;;;;6.93;2.53;;;18.80;40.50;;;;;;10454712;28;20213;-20
2021/03/22 05:16:23;;;;;;;7.03;2.70;;;18.70;40.70;;;;;;10455368;28;20189;-21
2021/03/22 05:21:44;;;;;;;7.07;2.60;;;18.70;40.70;;;;;;10453528;28;20255;-17
2021/03/22 05:27:07;;;;;;;11.87;3.10;;;18.70;40.70;;;;;;10447754;28;20807;-19
2021/03/22 05:32:32;;;;;;;7.93;2.93;;;18.80;40.70;;;;;;10413804;28;20198;-19
2021/03/22 05:37:54;;;;;;;9.50;3.37;;;18.80;40.60;;;;;;10413372;28;20217;-17
2021/03/22 05:43:26;;;;;;;8.67;3.10;;;18.90;40.40;;;;;;10436994;28;20573;-20
2021/03/22 05:48:59;;;;;;;9.00;3.57;;;18.90;40.30;;;;;;10453022;28;20223;-20
2021/03/22 05:54:38;;;;;;;12.70;4.50;;;18.90;40.40;;;;;;10453516;28;20185;-20
2021/03/22 06:00:06;;;;;;;12.97;5.40;;;18.90;40.50;;;;;;10446060;28;20221;-19
2021/03/22 06:05:38;;;;;;;9.10;4.30;;;18.90;40.50;;;;;;10439258;28;21856;-19
2021/03/22 06:11:02;;;;;;;14.60;4.33;;;18.60;39.80;;;;;;10445267;28;20213;-20
2021/03/22 06:16:28;;;;;;;12.30;4.37;;;18.10;39.50;;;;;;10414012;28;20244;-19
2021/03/22 06:21:51;;;;;;;11.20;3.83;;;18.00;39.90;;;;;;10410425;28;20213;-20
2021/03/22 06:27:14;;;;;;;11.47;4.00;;;17.90;40.00;;;;;;10442364;28;20229;-18
2021/03/22 06:32:44;;;;;;;11.93;4.17;;;17.70;40.30;;;;;;10451468;28;20197;-21
2021/03/22 06:38:08;;;;;;;10.90;4.07;;;17.20;40.50;;;;;;10450369;28;20239;-20
2021/03/22 06:43:30;;;;;;;12.67;3.17;;;17.00;41.10;;;;;;10450131;28;20254;-20
2021/03/22 06:48:58;;;;;;;12.53;3.03;;;16.60;40.80;;;;;;10451642;28;20272;-21
2021/03/22 06:54:32;;;;;;;10.23;2.60;;;16.30;41.40;;;;;;10452145;28;20226;-20
2021/03/22 07:00:13;;;;;;;13.07;2.87;;;16.00;41.50;;;;;;10447594;28;20228;-19
2021/03/22 07:05:38;;;;;;;9.50;2.53;;;16.50;42.20;;;;;;10445436;28;20295;-21
2021/03/22 07:11:08;;;;;;;7.17;2.43;;;17.20;41.10;;;;;;10449344;28;20219;-20
2021/03/22 07:16:31;;;;;;;6.27;2.20;;;17.70;40.40;;;;;;10452556;28;20213;-20
2021/03/22 07:21:55;;;;;;;5.93;1.90;;;18.10;39.90;;;;;;10450880;28;20663;-20
2021/03/22 07:27:25;;;;;;;8.43;2.60;;;18.40;39.80;;;;;;10451425;28;20513;-21
2021/03/22 07:32:59;;;;;;;6.83;2.37;;;18.60;39.50;;;;;;10450488;28;20561;-21
2021/03/22 07:38:42;;;;;;;4.83;2.27;;;18.80;39.50;;;;;;10445295;28;20588;-18
2021/03/22 07:44:21;;;;;;;5.67;1.90;;;18.90;39.20;;;;;;10449920;28;20622;-21
2021/03/22 07:49:52;;;;;;;5.20;1.90;;;19.00;39.00;;;;;;10449922;28;20646;-20
2021/03/22 07:55:40;;;;;;;7.30;2.33;;;19.00;39.00;;;;;;10450068;28;20231;-21
2021/03/22 08:01:10;;;;;;;5.73;2.07;;;19.20;38.90;;;;;;10449835;28;20240;-18
2021/03/22 08:06:44;;;;;;;7.97;2.07;;;19.30;38.80;;;;;;10450572;28;20684;-20
2021/03/22 08:12:14;;;;;;;5.83;2.17;;;19.30;38.80;;;;;;10450062;28;20197;-21
2021/03/22 08:17:54;;;;;;;5.93;2.07;;;19.40;38.80;;;;;;10457483;28;20216;-20
2021/03/22 08:23:21;;;;;;;7.63;1.90;;;19.50;38.80;;;;;;10457882;28;20209;-20
2021/03/22 08:28:53;;;;;;;4.90;1.87;;;19.50;38.70;;;;;;10456761;28;20223;-20
2021/03/22 08:34:22;;;;;;;5.87;1.80;;;19.60;38.60;;;;;;10457142;28;20259;-20
2021/03/22 08:39:49;;;;;;;6.53;2.27;;;19.60;38.60;;;;;;10457198;28;20284;-20
2021/03/22 08:45:18;;;;;;;5.97;1.70;;;19.60;38.50;;;;;;10457967;28;20213;-20
2021/03/22 08:50:41;;;;;;;5.33;1.80;;;19.80;38.40;;;;;;10455835;28;20223;-18
2021/03/22 08:56:08;;;;;;;5.23;2.10;;;19.90;38.30;;;;;;10455068;28;20196;-20
2021/03/22 09:01:33;;;;;;;7.80;2.07;;;20.10;37.80;;;;;;10454460;28;20202;-20
2021/03/22 09:07:07;;;;;;;6.40;1.77;;;20.40;37.40;;;;;;10453854;28;20241;-23
2021/03/22 09:12:32;;;;;;;5.33;1.70;;;20.40;37.40;;;;;;10454003;28;20196;-18
2021/03/22 09:18:18;;;;;;;4.40;1.90;;;20.30;37.60;;;;;;10454525;28;20250;-22
2021/03/22 09:23:43;;;;;;;4.60;1.70;;;20.20;37.60;;;;;;10455430;28;20213;-21
2021/03/22 09:29:33;;;;;;;3.53;1.80;;;20.10;37.80;;;;;;10452203;28;20274;-22
2021/03/22 09:34:56;;;;;;;4.20;1.83;;;20.00;37.80;;;;;;10440307;28;20204;-22
2021/03/22 09:40:49;;;;;;;4.30;2.00;;;20.00;38.20;;;;;;10412352;28;20220;-21
2021/03/22 09:46:32;;;;;;;4.73;1.83;;;20.00;38.90;;;;;;10428004;28;20600;-23
2021/03/22 09:52:16;;;;;;;3.63;1.63;;;20.20;38.70;;;;;;10453827;28;20203;-22
2021/03/22 09:57:41;;;;;;;4.43;1.73;;;20.70;38.30;;;;;;10454032;28;20208;-19
2021/03/22 10:03:32;;;;;;;7.90;1.80;;;21.10;38.00;;;;;;10435702;28;20217;-22
2021/03/22 10:08:55;;;;;;;3.97;1.60;;;21.40;37.70;;;;;;10430271;28;20217;-23
2021/03/22 10:14:24;;;;;;;5.83;1.90;;;21.60;37.30;;;;;;10450452;28;20197;-23
2021/03/22 10:19:46;;;;;;;5.53;1.90;;;21.30;36.50;;;;;;10453479;28;20213;-22
2021/03/22 10:25:13;;;;;;;5.03;1.87;;;20.70;37.30;;;;;;10453737;28;20736;-19
2021/03/22 10:30:36;;;;;;;3.53;1.60;;;20.50;37.50;;;;;;10452552;28;20209;-22
2021/03/22 10:36:00;;;;;;;5.17;1.80;;;20.50;37.70;;;;;;10452422;28;20204;-20
2021/03/22 10:41:26;;;;;;;5.90;1.90;;;20.40;37.80;;;;;;10452940;28;20215;-19
2021/03/22 10:52:24;;;;;;;4.53;1.93;;;20.40;38.00;;;;;;10450272;28;20691;-23
2021/03/22 10:57:46;;;;;;;4.50;1.60;;;20.30;38.00;;;;;;10451282;28;20208;-21
2021/03/22 11:03:09;;;;;;;2.87;1.53;;;20.30;38.00;;;;;;10451054;28;20212;-23
2021/03/22 11:08:33;;;;;;;4.20;1.60;;;20.40;38.00;;;;;;10450984;28;20247;-23
2021/03/22 11:13:55;;;;;;;4.40;1.73;;;20.40;38.00;;;;;;10450073;28;20609;-23
2021/03/22 11:19:27;;;;;;;3.03;1.43;;;20.30;38.10;;;;;;10451050;28;20219;-23
2021/03/22 11:24:50;;;;;;;2.43;1.43;;;20.30;38.10;;;;;;10451166;28;20227;-24
2021/03/22 11:30:14;;;;;;;3.77;1.73;;;20.30;38.00;;;;;;10450526;28;20225;-24
2021/03/22 11:35:37;;;;;;;1.97;1.17;;;20.30;38.10;;;;;;10410447;28;20252;-24
2021/03/22 11:40:59;;;;;;;3.70;1.73;;;20.00;38.70;;;;;;10451312;28;20228;-24
2021/03/22 11:46:25;;;;;;;4.03;1.40;;;20.10;38.50;;;;;;10450086;28;20285;-23
2021/03/22 11:51:50;;;;;;;7.13;1.80;;;20.30;38.40;;;;;;10417375;28;20704;-24
2021/03/22 11:57:18;;;;;;;5.07;1.80;;;20.30;38.20;;;;;;10453498;28;20207;-25
2021/03/22 12:02:50;;;;;;;3.50;1.37;;;20.40;38.20;;;;;;10457277;28;20653;-25
2021/03/22 12:08:33;;;;;;;4.57;1.83;;;20.40;38.10;;;;;;10457486;28;20718;-25
2021/03/22 12:13:57;;;;;;;4.83;1.90;;;20.40;38.10;;;;;;10456366;28;20611;-25
2021/03/22 12:19:22;;;;;;;3.27;1.77;;;20.50;38.10;;;;;;10456994;28;20596;-25
2021/03/22 12:24:44;;;;;;;2.50;1.33;;;20.50;38.20;;;;;;10458008;28;20275;-24
2021/03/22 12:30:07;;;;;;;2.57;1.30;;;20.50;38.10;;;;;;10457137;28;20224;-24
2021/03/22 12:35:34;;;;;;;3.27;1.47;;;20.50;38.20;;;;;;10456889;28;20476;-25
2021/03/22 12:40:57;;;;;;;3.90;1.33;;;20.60;38.40;;;;;;10455367;28;20692;-23
2021/03/22 12:46:18;;;;;;;2.53;1.00;;;20.30;38.70;;;;;;10455958;28;20248;-24
2021/03/22 12:51:40;;;;;;;3.80;1.87;;;19.90;39.60;;;;;;10455997;28;20224;-23
2021/03/22 12:57:05;;;;;;;3.23;1.40;;;19.70;40.10;;;;;;10454606;28;20209;-23
2021/03/22 13:02:28;;;;;;;3.43;1.17;;;19.90;39.90;;;;;;10453680;28;20691;-23
2021/03/22 13:07:50;;;;;;;4.27;1.30;;;20.50;39.60;;;;;;10449649;28;20221;-23
2021/03/22 13:13:13;;;;;;;2.33;1.30;;;21.00;38.90;;;;;;10454725;28;20193;-22
2021/03/22 13:18:35;;;;;;;3.00;1.20;;;21.40;38.40;;;;;;10449579;28;20711;-22
2021/03/22 13:23:58;;;;;;;3.30;1.20;;;21.60;38.10;;;;;;10450768;28;20663;-21
2021/03/22 13:29:20;;;;;;;2.50;1.20;;;21.80;37.80;;;;;;10451057;28;20758;-22
2021/03/22 13:34:42;;;;;;;3.53;1.53;;;21.80;37.20;;;;;;10450468;28;20200;-22
2021/03/22 13:40:05;;;;;;;1.90;1.10;;;21.80;37.00;;;;;;10451430;28;20684;-22
2021/03/22 13:45:29;;;;;;;3.47;1.30;;;21.80;36.70;;;;;;10451323;28;20243;-22
2021/03/22 13:50:51;;;;;;;3.03;0.97;;;21.80;36.80;;;;;;10451276;28;20240;-22
2021/03/22 13:56:13;;;;;;;2.70;1.30;;;21.80;36.60;;;;;;10450542;28;20189;-22
2021/03/22 14:01:35;;;;;;;1.83;0.90;;;21.80;36.60;;;;;;10451763;28;20205;-22
2021/03/22 14:06:57;;;;;;;1.43;0.83;;;21.80;37.20;;;;;;10450763;28;20196;-22
2021/03/22 14:12:19;;;;;;;6.40;1.30;;;21.80;36.50;;;;;;10449280;28;20614;-22
2021/03/22 14:17:41;;;;;;;4.93;1.07;;;21.60;36.10;;;;;;10450847;28;20220;-23
2021/03/22 14:23:03;;;;;;;3.37;1.23;;;21.10;37.20;;;;;;10450494;28;20805;-23
2021/03/22 14:28:25;;;;;;;5.83;1.13;;;20.50;38.20;;;;;;10451252;28;20707;-23
2021/03/22 14:33:48;;;;;;;3.80;1.13;;;20.20;38.70;;;;;;10451225;28;20195;-22
2021/03/22 14:39:10;;;;;;;6.03;1.17;;;20.10;39.00;;;;;;10449368;28;20217;-22
2021/03/22 14:44:32;;;;;;;3.00;1.30;;;19.90;39.20;;;;;;10449969;28;20224;-22
2021/03/22 14:49:54;;;;;;;5.60;1.20;;;19.80;39.60;;;;;;10449508;28;20236;-21
2021/03/22 14:55:17;;;;;;;3.53;1.20;;;19.70;39.70;;;;;;10450421;28;20197;-23
2021/03/22 15:00:40;;;;;;;6.20;0.90;;;19.60;39.60;;;;;;10449131;28;20267;-22
2021/03/22 15:06:03;;;;;;;4.57;1.10;;;19.60;39.60;;;;;;10407496;28;20610;-24
2021/03/22 15:11:24;;;;;;;2.07;0.80;;;19.70;39.80;;;;;;10407636;28;20245;-24
2021/03/22 15:16:47;;;;;;;5.33;1.00;;;19.70;40.00;;;;;;10406460;28;20201;-23
2021/03/22 15:22:10;;;;;;;3.27;1.20;;;19.60;40.10;;;;;;10445769;28;20448;-24
2021/03/22 15:27:31;;;;;;;2.57;0.80;;;19.70;40.00;;;;;;10448932;28;20434;-23
2021/03/22 15:32:53;;;;;;;2.07;0.90;;;19.50;40.20;;;;;;10447326;28;20201;-23
2021/03/22 15:38:16;;;;;;;2.73;1.07;;;19.50;40.40;;;;;;10449315;28;20219;-23
2021/03/22 15:43:38;;;;;;;2.23;0.80;;;19.40;40.70;;;;;;10449291;28;20589;-24
2021/03/22 15:49:00;;;;;;;2.33;1.20;;;19.30;40.80;;;;;;10447569;28;20235;-23
2021/03/22 15:54:22;;;;;;;2.67;0.80;;;19.30;40.90;;;;;;10447736;28;20196;-23
2021/03/22 15:59:44;;;;;;;2.80;0.90;;;19.20;40.90;;;;;;10447498;28;20278;-23
2021/03/22 16:05:07;;;;;;;3.30;1.10;;;19.20;41.00;;;;;;10448564;28;20220;-23
2021/03/22 16:10:30;;;;;;;3.30;1.00;;;19.20;41.00;;;;;;10448038;28;20208;-23
2021/03/22 16:15:52;;;;;;;3.33;1.00;;;19.10;41.00;;;;;;10448729;28;20357;-23
2021/03/22 16:21:14;;;;;;;2.70;0.83;;;19.10;40.90;;;;;;10447286;28;20244;-23
2021/03/22 16:26:36;;;;;;;3.93;1.20;;;19.00;41.10;;;;;;10408613;28;20218;-23
2021/03/22 16:31:58;;;;;;;3.00;1.00;;;19.00;41.10;;;;;;10406332;28;20220;-23
2021/03/22 16:37:20;;;;;;;1.53;0.83;;;19.00;41.00;;;;;;10412018;28;20194;-23
2021/03/22 16:42:43;;;;;;;4.40;0.90;;;19.00;41.10;;;;;;10430067;28;20213;-23
2021/03/22 16:48:06;;;;;;;2.10;0.80;;;18.90;41.10;;;;;;10454403;28;20255;-24
2021/03/22 16:53:28;;;;;;;3.33;1.10;;;18.90;41.20;;;;;;10459907;22;20241;-19
2021/03/22 16:58:52;;;;;;;8.17;5.33;;;18.80;41.40;;;;;;10439297;28;20227;-21
2021/03/22 17:04:14;;;;;;;7.53;5.67;;;18.80;41.40;;;;;;10426907;28;20564;-21
2021/03/22 17:09:36;;;;;;;5.70;3.80;;;18.80;41.30;;;;;;10412152;28;20197;-20
2021/03/22 17:14:58;;;;;;;9.23;5.03;;;18.80;41.40;;;;;;10413312;28;20754;-23
2021/03/22 17:20:21;;;;;;;4.63;3.50;;;18.90;41.40;;;;;;10411701;28;20206;-20
2021/03/22 17:25:45;;;;;;;4.27;3.10;;;18.90;41.40;;;;;;10411260;28;20226;-20
2021/03/22 17:31:08;;;;;;;4.80;2.73;;;18.80;41.50;;;;;;10410649;28;20197;-21
2021/03/22 17:36:29;;;;;;;4.30;2.70;;;18.80;41.50;;;;;;10371076;28;20673;-19
2021/03/22 17:41:51;;;;;;;4.47;2.20;;;18.80;41.40;;;;;;10379959;28;20218;-20
2021/03/22 17:47:13;;;;;;;5.17;3.73;;;18.80;41.30;;;;;;10411753;28;20236;-22
2021/03/22 17:52:35;;;;;;;14.53;9.37;;;18.70;41.30;;;;;;10411183;28;20700;-21
2021/03/22 17:57:56;;;;;;;10.97;5.90;;;18.70;41.30;;;;;;10411966;28;20240;-21
2021/03/22 18:03:19;;;;;;;7.43;4.47;;;18.80;41.30;;;;;;10410785;28;20217;-22
2021/03/22 18:08:40;;;;;;;6.17;4.03;;;18.80;41.50;;;;;;10408926;28;20212;-22
2021/03/22 18:14:03;;;;;;;6.80;3.23;;;19.50;41.40;;;;;;10411708;28;20221;-22
2021/03/22 18:19:26;;;;;;;6.97;3.70;;;20.00;40.70;;;;;;10410189;28;20198;-22
2021/03/22 18:24:49;;;;;;;5.10;2.70;;;20.50;39.90;;;;;;10411018;28;20217;-19
2021/03/22 18:30:12;;;;;;;4.00;2.60;;;20.90;39.60;;;;;;10409911;28;20219;-22
2021/03/22 18:35:37;;;;;;;5.67;2.57;;;21.20;39.80;;;;;;10409296;28;20254;-22
2021/03/22 18:40:59;;;;;;;3.87;2.30;;;21.20;38.00;;;;;;10409721;28;20624;-22
2021/03/22 18:46:20;;;;;;;3.00;1.90;;;21.00;37.80;;;;;;10411007;28;20584;-23
2021/03/22 18:51:43;;;;;;;4.77;1.90;;;20.90;38.10;;;;;;10409295;28;20238;-22
2021/03/22 18:57:06;;;;;;;3.23;1.90;;;20.80;37.70;;;;;;10409725;28;20281;-23
2021/03/22 19:02:28;;;;;;;2.73;1.53;;;20.40;38.50;;;;;;10409898;28;20221;-22
2021/03/22 19:07:51;;;;;;;4.00;1.63;;;20.10;39.00;;;;;;10408719;28;20569;-22
2021/03/22 19:13:14;;;;;;;3.93;1.50;;;19.90;39.20;;;;;;10408120;28;20213;-19
2021/03/22 19:18:36;;;;;;;4.40;1.63;;;19.70;39.40;;;;;;10405555;28;20817;-21
2021/03/22 19:24:02;;;;;;;4.33;1.50;;;20.20;38.80;;;;;;10402393;28;20275;-24
2021/03/22 19:29:25;;;;;;;3.00;1.20;;;20.80;38.70;;;;;;10382370;28;20213;-24
2021/03/22 19:34:47;;;;;;;2.63;1.10;;;21.40;38.20;;;;;;10407209;28;20308;-25
2021/03/22 19:40:13;;;;;;;2.57;1.27;;;21.80;37.90;;;;;;10408090;28;20198;-26
2021/03/22 19:45:36;;;;;;;1.73;1.10;;;22.10;37.40;;;;;;10368729;28;20215;-23
2021/03/22 19:50:57;;;;;;;3.73;1.10;;;22.30;37.10;;;;;;10367837;28;20237;-24
2021/03/22 19:56:20;;;;;;;1.60;0.90;;;22.50;36.90;;;;;;10368454;28;20190;-24
2021/03/22 20:01:42;;;;;;;2.20;0.93;;;22.60;36.70;;;;;;10373589;28;20217;-25
2021/03/22 20:07:04;;;;;;;2.77;0.80;;;22.70;36.60;;;;;;10406826;28;20692;-23
2021/03/22 20:12:26;;;;;;;2.37;0.97;;;22.80;36.50;;;;;;10407681;28;20226;-22
2021/03/22 20:17:48;;;;;;;2.03;0.90;;;22.20;35.30;;;;;;10415862;28;20226;-25
2021/03/22 20:23:13;;;;;;;4.10;1.30;;;21.80;36.70;;;;;;10415707;28;20229;-23
2021/03/22 20:28:36;;;;;;;2.03;0.77;;;22.20;37.00;;;;;;10415560;28;20209;-23
2021/03/22 20:33:58;;;;;;;1.87;1.20;;;22.60;37.00;;;;;;10415523;28;20580;-24
2021/03/22 20:39:19;;;;;;;2.93;1.27;;;22.80;36.80;;;;;;10414936;28;20197;-25
2021/03/22 20:44:42;;;;;;;3.50;1.20;;;22.90;36.60;;;;;;10415235;28;20664;-24
2021/03/22 20:50:05;;;;;;;2.80;1.30;;;23.10;36.40;;;;;;10412638;28;20331;-22
2021/03/22 20:55:29;;;;;;;1.60;1.10;;;23.20;36.30;;;;;;10414797;28;20309;-24
2021/03/22 21:00:52;;;;;;;2.30;1.30;;;23.30;36.20;;;;;;10413817;28;20217;-26
2021/03/22 21:06:14;;;;;;;2.03;1.20;;;23.10;35.20;;;;;;10409327;28;20705;-21
2021/03/22 21:11:35;;;;;;;3.50;1.47;;;22.70;35.60;;;;;;10414645;28;20696;-24
2021/03/22 21:16:58;;;;;;;3.93;2.00;;;22.40;36.10;;;;;;10414852;28;20597;-22
2021/03/22 21:22:19;;;;;;;2.17;1.70;;;22.20;36.60;;;;;;10414029;28;20245;-23
2021/03/22 21:27:42;;;;;;;2.27;1.30;;;22.10;36.90;;;;;;10413677;28;20569;-22
2021/03/22 21:33:05;;;;;;;2.40;1.47;;;22.00;37.20;;;;;;10405691;28;20256;-22
2021/03/22 21:38:29;;;;;;;3.47;1.57;;;21.90;37.40;;;;;;10398492;28;20194;-24
2021/03/22 21:43:51;;;;;;;1.87;1.20;;;21.70;37.40;;;;;;10403370;28;20681;-24
2021/03/22 21:49:14;;;;;;;2.40;1.67;;;21.50;37.80;;;;;;10392499;28;20206;-26
2021/03/22 21:54:35;;;;;;;2.83;1.33;;;21.50;38.10;;;;;;10393835;28;20575;-24
2021/03/22 21:59:57;;;;;;;2.17;1.30;;;21.40;38.20;;;;;;10391953;28;20193;-25
2021/03/22 22:05:23;;;;;;;2.13;1.20;;;21.30;38.40;;;;;;10411483;28;20221;-24
2021/03/22 22:10:44;;;;;;;3.43;1.20;;;21.30;38.50;;;;;;10412434;28;20190;-24
2021/03/22 22:16:07;;;;;;;1.40;0.93;;;21.30;38.50;;;;;;10412374;28;20198;-24
2021/03/22 22:21:29;;;;;;;1.73;0.87;;;21.20;38.60;;;;;;10409745;28;20218;-23
2021/03/22 22:26:51;;;;;;;2.90;1.00;;;21.20;38.70;;;;;;10399503;28;20221;-22
2021/03/22 22:32:13;;;;;;;2.27;1.10;;;21.20;38.80;;;;;;10410243;28;20697;-23
2021/03/22 22:37:35;;;;;;;1.30;0.87;;;21.20;38.70;;;;;;10412034;28;20608;-25
2021/03/22 22:42:57;;;;;;;2.47;0.90;;;21.00;37.70;;;;;;10429610;28;20220;-25
2021/03/22 22:48:19;;;;;;;1.40;0.70;;;20.40;38.50;;;;;;10399305;28;20197;-24
2021/03/22 22:53:41;;;;;;;2.87;0.70;;;19.90;39.20;;;;;;10451146;23;20240;-23
2021/03/22 22:59:03;;;;;;;1.80;0.67;;;19.70;40.00;;;;;;10452584;28;20193;-23
2021/03/22 23:04:24;;;;;;;1.33;0.60;;;19.60;40.50;;;;;;10475618;28;20281;-24
2021/03/22 23:09:47;;;;;;;0.87;0.70;;;19.40;40.70;;;;;;10493221;28;20249;-23
2021/03/22 23:15:20;;;;;;;3.03;0.70;;;19.30;41.10;;;;;;10493426;28;20246;-24
2021/03/22 23:20:42;;;;;;;0.90;0.70;;;19.20;41.40;;;;;;10494152;28;20195;-24
2021/03/22 23:26:06;;;;;;;2.80;0.93;;;19.10;41.50;;;;;;10493048;28;20230;-25
2021/03/22 23:31:30;;;;;;;1.13;0.60;;;19.10;41.70;;;;;;10492998;28;20607;-24
2021/03/22 23:36:52;;;;;;;2.60;0.77;;;19.10;41.70;;;;;;10492641;28;20196;-25
2021/03/22 23:42:14;;;;;;;1.70;0.77;;;19.00;41.70;;;;;;10478409;28;20596;-24
2021/03/22 23:47:36;;;;;;;1.53;0.60;;;18.90;41.90;;;;;;10460295;28;20217;-24
2021/03/22 23:52:58;;;;;;;1.07;0.60;;;18.90;41.90;;;;;;10459570;28;20220;-25
2021/03/22 23:58:23;;;;;;;2.03;0.83;;;18.80;41.90;;;;;;10459873;28;20193;-25
